Rockford, IL (61126)

2:57 PM CDT on May 06, 2015 (GMT -0500)
Gregory Heights | | Change Station
CLOSE
Current Station
Personal Weather Station
Location: Rockford, IL
Elevation: 873 ft
Nearby Weather Stations

Elev 873 ft 42.26 °N, 89.01 °W | Updated 19 seconds ago

Mostly Cloudy
Mostly Cloudy
78.9 °F
Feels Like 81 °F
N
5.0
Wind Variable Wind from SE
Gusts 10.0 mph

Today
High -- | Low -- °F
--% Chance of Precip.
Yesterday
High -- | Low -- °F
Precip. -- in
5:45 AM 8:00 PM
Waning Gibbous, 92% visible
Pressure 30.11 in
Visibility 8.0 miles
Clouds Mostly Cloudy 25000 ft
Heat Index 81 °F
Dew Point 64 °F
Humidity 61%
Rainfall 0.00 in
Snow Depth Not available.
UV 5 out of 12
Pollen 10.20 out of 12
Air Quality Not available.
Flu Activity Local Activity
METAR KRFD 061854Z 12009KT 8SM BKN250 25/17 A3011 RMK AO2 SLP195 T02500172

More Conditions Fewer Conditions

Pressure 30.11 in
Visibility 8.0 miles
Clouds Mostly Cloudy 25000 ft
Heat Index 81 °F
Dew Point 64 °F
Humidity 61%
Rainfall 0.00 in
Snow Depth Not available.
UV 5 out of 12
Pollen 10.20 out of 12
Air Quality Not available.
Flu Activity Local Activity
METAR KRFD 061854Z 12009KT 8SM BKN250 25/17 A3011 RMK AO2 SLP195 T02500172

More Conditions Fewer Conditions

10-Day Weather Forecast

Almanac

Astronomy

May. 06, 2015 Rise Set
Actual Time
Civil Twilight
Nautical Twilight
Astronomical Twilight
Moon
Length of Visible Light
Length of Day
Tomorrow will be .
, % of the Moon is Illuminated

Today's Extremes

State Highs State Lows

Community

WunderPhotos

Upload Photos

1,819,003 photos uploaded!

WunderBlogs® & News

Nearby

Air Quality

  Air Quality AQ Index Pollutant
Not available.

Snow Depth

Station Depth Elevation

Earthquake Activity

City Distance Mag. Time & Date
Minimum magnitude displayed is 2.5.

Coastal Water Temperatures

Place Temperature

Stations

Nearby Weather Stations

Station Location Temp. Windchill Dew Point Humidity Wind Precip. Elev Updated Type